Etusivu
METAR-TAF:

METAR-TAF

Lentoasemat :

Tena, Ecuador

Leveyspiiri: 01-03-35S, Pituuspiiri: 77-35-00W, korkeus merenpinnasta: 376 m

Tämänhetkinen sää

Tämä raportti tehtiin 18 minuuttia sitten, kello 21.00 UTC
Tuuli 2 kn etelästä/lounaasta
Lämpötila 30°C
Kosteus 70%
Ilmanpaine 1010 hPa
Näkyvyys 10 km tai enemmän
Muutamia pilviä 2600 ft:n korkeudessa
Hajanaisia pilviä 10000 ft:n korkeudessa

METAR: SEJD 122100Z 21002KT 9999 FEW026 SCT100 30/24 Q1010 RMK A2983

Aika: 16:18 (21:18 UTC)


TAF: puuttuu

Säähavainnot ja -ennusteet yli 4000 lentoasemalta (METAR- ja TAF-raportit).

Käytössä olevat sääasemat on merkitty karttaan keltaisilla ja punaisilla pisteillä.

Aseta hiiri pisteen päälle nähdäksesi sääaseman nimen.

Klikkaa sitten nähdäksesi säähavainnot ja -ennusteet.

Kartan vaihtaminen: klikkaa mustalla rastilla varustettuja vihreitä pisteitä, niin voit zoomata sisään; viivalla varustettua vihreää pistettä, niin voit zoomata ulos tai vihreitä nuolia, niin pääset viereisille kartoille.


METAR-TAF: